createdAt,value
2023-03-21T00:01:51.120Z,7.63
2023-03-21T00:04:18.332Z,7.03
2023-03-21T00:06:46.914Z,6.97
2023-03-21T00:09:13.950Z,8.10
2023-03-21T00:11:41.157Z,7.95
2023-03-21T00:14:08.595Z,7.65
2023-03-21T00:16:36.434Z,7.15
2023-03-21T00:19:05.192Z,6.07
2023-03-21T00:21:48.811Z,7.13
2023-03-21T00:24:21.793Z,7.85
2023-03-21T00:26:49.549Z,7.47
2023-03-21T00:29:16.587Z,7.88
2023-03-21T00:31:46.744Z,6.80
2023-03-21T00:34:13.968Z,7.25
2023-03-21T00:36:41.132Z,7.32
2023-03-21T00:39:08.437Z,7.15
2023-03-21T00:41:43.011Z,7.05
2023-03-21T00:44:11.772Z,7.72
2023-03-21T00:46:47.223Z,7.00
2023-03-21T00:49:16.410Z,7.10
2023-03-21T00:51:44.076Z,7.28
2023-03-21T00:54:13.332Z,6.78
2023-03-21T00:56:42.869Z,7.15
2023-03-21T00:59:10.181Z,7.10
2023-03-21T01:01:37.359Z,7.35
2023-03-21T01:04:07.352Z,7.38
2023-03-21T01:06:38.299Z,7.22
2023-03-21T01:09:07.478Z,7.05
2023-03-21T01:11:36.230Z,7.03
2023-03-21T01:14:21.039Z,7.25
2023-03-21T01:16:50.379Z,6.18
2023-03-21T01:19:40.632Z,7.50
2023-03-21T01:22:07.571Z,6.97
2023-03-21T01:24:37.698Z,7.80
2023-03-21T01:27:04.906Z,7.68
2023-03-21T01:29:33.327Z,8.05
2023-03-21T01:32:00.635Z,8.18
2023-03-21T01:34:27.788Z,7.60
2023-03-21T01:36:54.897Z,6.07
2023-03-21T01:39:22.195Z,7.95
2023-03-21T01:41:50.762Z,8.05
2023-03-21T01:44:20.722Z,6.97
2023-03-21T01:47:07.300Z,7.13
2023-03-21T01:49:51.086Z,7.82
2023-03-21T01:52:35.972Z,8.60
2023-03-21T01:55:12.228Z,7.43
2023-03-21T02:00:38.276Z,8.02
2023-03-21T02:03:33.288Z,8.30
2023-03-21T02:06:32.545Z,8.27
2023-03-21T02:09:14.749Z,7.15
2023-03-21T02:11:44.205Z,7.28
2023-03-21T02:14:20.108Z,8.93
2023-03-21T02:17:10.313Z,8.20
2023-03-21T02:20:27.340Z,7.60
2023-03-21T02:23:42.973Z,5.78
2023-03-21T02:27:01.486Z,7.47
2023-03-21T02:30:26.438Z,8.13
2023-03-21T02:33:41.572Z,8.27
2023-03-21T02:36:24.728Z,7.40
2023-03-21T02:39:01.363Z,7.85
2023-03-21T02:41:45.555Z,7.07
2023-03-21T02:44:23.033Z,8.40
2023-03-21T02:47:05.231Z,8.75
2023-03-21T02:49:43.353Z,8.20
2023-03-21T02:52:31.720Z,8.48
2023-03-21T02:55:09.812Z,7.60
2023-03-21T02:57:47.209Z,8.65
2023-03-21T03:00:20.564Z,8.40
2023-03-21T03:02:50.606Z,8.10
2023-03-21T03:05:24.545Z,8.52
2023-03-21T03:08:09.058Z,8.77
2023-03-21T03:10:57.624Z,7.22
2023-03-21T03:13:51.002Z,8.18
2023-03-21T03:16:33.575Z,8.85
2023-03-21T03:19:03.025Z,9.20
2023-03-21T03:21:40.083Z,9.63
2023-03-21T03:24:15.954Z,8.27
2023-03-21T03:26:58.735Z,8.48
2023-03-21T03:29:34.716Z,9.00
2023-03-21T03:32:11.744Z,8.32
2023-03-21T03:34:49.464Z,8.35
2023-03-21T03:37:23.496Z,8.38
2023-03-21T03:40:05.605Z,9.23
2023-03-21T03:42:46.797Z,8.95
2023-03-21T03:45:32.145Z,10.15
2023-03-21T03:48:08.035Z,9.77
2023-03-21T03:50:54.774Z,9.18
2023-03-21T03:53:40.245Z,8.32
2023-03-21T03:56:10.914Z,8.35
2023-03-21T04:01:17.518Z,9.70
2023-03-21T04:03:51.687Z,9.63
2023-03-21T04:06:23.983Z,9.57
2023-03-21T04:08:57.119Z,8.98
2023-03-21T04:11:25.475Z,10.18
2023-03-21T04:13:55.332Z,9.43
2023-03-21T04:16:24.210Z,9.07
2023-03-21T04:18:51.674Z,10.18
2023-03-21T04:21:20.795Z,9.40
2023-03-21T04:23:47.743Z,8.45
2023-03-21T04:26:14.801Z,9.85
2023-03-21T04:28:51.742Z,9.45
2023-03-21T04:31:26.473Z,10.45
2023-03-21T04:34:06.591Z,9.93
2023-03-21T04:36:34.663Z,9.27
2023-03-21T04:39:02.844Z,10.82
2023-03-21T04:41:41.037Z,10.15
2023-03-21T04:44:19.109Z,10.65
2023-03-21T04:46:50.144Z,10.05
2023-03-21T04:49:20.076Z,10.48
2023-03-21T04:51:47.470Z,10.45
2023-03-21T04:54:28.851Z,10.57
2023-03-21T04:56:56.888Z,10.50
2023-03-21T04:59:28.982Z,11.32
2023-03-21T05:01:57.392Z,11.02
2023-03-21T05:04:25.757Z,11.43
2023-03-21T05:06:55.130Z,10.85
2023-03-21T05:09:22.994Z,10.38
2023-03-21T05:11:50.217Z,10.32
2023-03-21T05:14:22.371Z,11.38
2023-03-21T05:17:01.546Z,11.52
2023-03-21T05:19:31.251Z,10.85
2023-03-21T05:21:59.023Z,10.40
2023-03-21T05:24:27.814Z,11.32
2023-03-21T05:26:54.815Z,10.70
2023-03-21T05:29:24.716Z,10.60
2023-03-21T05:32:05.623Z,9.98
2023-03-21T05:34:32.558Z,11.20
2023-03-21T05:37:00.782Z,9.75
2023-03-21T05:39:40.379Z,10.15
2023-03-21T05:45:15.438Z,9.52
2023-03-21T05:47:44.101Z,11.02
2023-03-21T05:50:13.841Z,9.93
2023-03-21T05:52:44.685Z,11.55
2023-03-21T05:55:14.282Z,10.45
2023-03-21T05:57:42.308Z,10.50
2023-03-21T06:00:16.813Z,10.32
2023-03-21T06:02:45.750Z,10.27
2023-03-21T06:05:32.972Z,9.90
2023-03-21T06:08:00.180Z,10.23
2023-03-21T06:10:27.238Z,9.77
2023-03-21T06:12:54.292Z,11.02
2023-03-21T06:15:33.540Z,11.27
2023-03-21T06:18:11.099Z,12.02
2023-03-21T06:20:43.893Z,10.80
2023-03-21T06:23:12.411Z,12.07
2023-03-21T06:25:40.650Z,13.15
2023-03-21T06:28:08.028Z,12.38
2023-03-21T06:30:39.620Z,14.57
2023-03-21T06:33:15.233Z,12.75
2023-03-21T06:35:43.373Z,13.30
2023-03-21T06:38:10.281Z,14.48
2023-03-21T06:40:38.689Z,14.70
2023-03-21T06:43:06.023Z,15.60
2023-03-21T06:45:33.276Z,14.57
2023-03-21T06:48:00.620Z,14.10
2023-03-21T06:50:35.648Z,13.10
2023-03-21T06:53:02.810Z,14.60
2023-03-21T06:55:33.853Z,14.63
2023-03-21T06:58:02.039Z,16.38
2023-03-21T07:00:29.017Z,14.68
2023-03-21T07:02:56.237Z,13.65
2023-03-21T07:05:25.177Z,15.02
2023-03-21T07:07:53.520Z,14.75
2023-03-21T07:10:21.656Z,15.00
2023-03-21T07:12:58.344Z,13.98
2023-03-21T07:16:01.059Z,13.80
2023-03-21T07:18:28.434Z,13.80
2023-03-21T07:20:56.844Z,13.32
2023-03-21T07:23:26.473Z,12.40
2023-03-21T07:25:54.987Z,13.85
2023-03-21T07:28:23.277Z,15.18
2023-03-21T07:30:57.801Z,14.57
2023-03-21T07:33:26.375Z,14.52
2023-03-21T07:35:59.717Z,15.10
2023-03-21T07:38:28.259Z,15.77
2023-03-21T07:40:55.256Z,15.73
2023-03-21T07:43:22.919Z,14.48
2023-03-21T07:45:57.038Z,13.48
2023-03-21T07:48:24.220Z,15.10
2023-03-21T07:50:51.114Z,17.33
2023-03-21T07:53:18.133Z,14.30
2023-03-21T07:55:50.407Z,16.02
2023-03-21T07:58:17.434Z,14.25
2023-03-21T08:00:44.380Z,14.55
2023-03-21T08:03:11.229Z,13.88
2023-03-21T08:05:39.067Z,14.93
2023-03-21T08:08:07.152Z,14.98
2023-03-21T08:10:34.686Z,15.02
2023-03-21T08:13:03.473Z,15.55
2023-03-21T08:15:30.558Z,16.83
2023-03-21T08:17:59.259Z,15.95
2023-03-21T08:20:26.915Z,15.95
2023-03-21T08:22:54.704Z,14.88
2023-03-21T08:25:23.087Z,15.50
2023-03-21T08:27:51.568Z,15.07
2023-03-21T08:30:28.000Z,17.23
2023-03-21T08:33:00.509Z,17.75
2023-03-21T08:35:29.263Z,16.75
2023-03-21T08:37:56.341Z,15.85
2023-03-21T08:40:23.391Z,16.85
2023-03-21T08:42:50.284Z,15.05
2023-03-21T08:45:19.231Z,16.02
2023-03-21T08:47:46.915Z,14.00
2023-03-21T08:50:18.767Z,14.68
2023-03-21T08:52:45.897Z,15.55
2023-03-21T08:55:15.489Z,14.15
2023-03-21T08:57:42.703Z,14.75
2023-03-21T09:00:14.673Z,14.40
2023-03-21T09:02:45.121Z,12.45
2023-03-21T09:05:12.775Z,14.18
2023-03-21T09:07:41.070Z,13.10
2023-03-21T09:10:21.105Z,13.27
2023-03-21T09:12:51.353Z,12.27
2023-03-21T09:15:18.791Z,15.25
2023-03-21T09:17:47.571Z,13.63
2023-03-21T09:20:14.682Z,14.65
2023-03-21T09:22:42.855Z,14.35
2023-03-21T09:25:10.026Z,14.27
2023-03-21T09:27:37.396Z,13.63
2023-03-21T09:30:06.343Z,14.73
2023-03-21T09:32:33.315Z,14.38
2023-03-21T09:35:02.016Z,15.30
2023-03-21T09:37:29.032Z,15.43
2023-03-21T09:39:55.840Z,14.32
2023-03-21T09:42:37.996Z,13.45
2023-03-21T09:47:45.429Z,13.80
2023-03-21T09:50:18.029Z,14.43
2023-03-21T09:52:50.789Z,12.65
2023-03-21T09:55:23.432Z,11.93
2023-03-21T09:58:01.823Z,11.60
2023-03-21T10:00:36.297Z,15.80
2023-03-21T10:03:06.172Z,12.52
2023-03-21T10:05:40.208Z,13.48
2023-03-21T10:08:18.467Z,11.23
2023-03-21T10:10:49.291Z,10.93
2023-03-21T10:13:22.225Z,12.82
2023-03-21T10:15:49.168Z,11.07
2023-03-21T10:18:24.048Z,11.82
2023-03-21T10:20:52.888Z,12.25
2023-03-21T10:23:25.749Z,12.18
2023-03-21T10:25:56.558Z,11.45
2023-03-21T10:28:28.507Z,12.52
2023-03-21T10:30:58.731Z,10.90
2023-03-21T10:33:33.743Z,11.35
2023-03-21T10:36:08.849Z,11.68
2023-03-21T10:38:39.953Z,11.20
2023-03-21T10:41:07.423Z,11.35
2023-03-21T10:43:37.760Z,10.90
2023-03-21T10:46:12.610Z,10.60
2023-03-21T10:48:42.340Z,10.85
2023-03-21T10:51:17.246Z,9.68
2023-03-21T10:53:51.802Z,9.90
2023-03-21T10:56:22.894Z,9.80
2023-03-21T10:58:51.076Z,9.27
2023-03-21T11:01:29.944Z,9.38
2023-03-21T11:03:59.973Z,9.05
2023-03-21T11:06:32.478Z,8.60
2023-03-21T11:09:07.380Z,8.43
2023-03-21T11:11:37.727Z,8.57
2023-03-21T11:14:07.770Z,8.35
2023-03-21T11:16:41.048Z,7.57
2023-03-21T11:19:20.012Z,7.40
2023-03-21T11:21:48.329Z,7.15
2023-03-21T11:24:18.265Z,7.35
2023-03-21T11:26:49.036Z,7.00
2023-03-21T11:29:36.125Z,6.82
2023-03-21T11:32:12.173Z,6.40
2023-03-21T11:34:47.545Z,7.03
2023-03-21T11:37:28.723Z,5.80
2023-03-21T11:40:15.341Z,6.35
2023-03-21T11:42:45.746Z,6.75
2023-03-21T11:45:37.807Z,6.10
2023-03-21T11:48:14.085Z,5.75
2023-03-21T11:50:46.417Z,6.18
2023-03-21T11:53:32.909Z,6.00
2023-03-21T11:56:19.705Z,6.05
2023-03-21T11:59:04.792Z,6.13
2023-03-21T12:01:40.168Z,6.15
2023-03-21T12:04:29.213Z,6.70
2023-03-21T12:07:06.201Z,6.05
2023-03-21T12:09:41.959Z,6.43
2023-03-21T12:12:39.178Z,5.93
2023-03-21T12:15:21.272Z,6.00
2023-03-21T12:18:06.553Z,5.82
2023-03-21T12:20:43.525Z,5.68
2023-03-21T12:23:45.798Z,6.72
2023-03-21T12:26:23.746Z,6.60
2023-03-21T12:29:24.805Z,7.03
2023-03-21T12:32:10.487Z,6.93
2023-03-21T12:35:27.805Z,6.50
2023-03-21T12:38:12.104Z,6.55
2023-03-21T12:41:05.833Z,6.80
2023-03-21T12:43:44.805Z,6.55
2023-03-21T12:46:20.691Z,5.97
2023-03-21T12:48:53.716Z,5.82
2023-03-21T12:51:28.774Z,6.80
2023-03-21T12:54:06.492Z,6.53
2023-03-21T12:56:43.302Z,6.38
2023-03-21T12:59:27.366Z,6.20
2023-03-21T13:02:00.743Z,6.70
2023-03-21T13:04:41.962Z,6.25
2023-03-21T13:07:15.781Z,6.90
2023-03-21T13:09:44.152Z,6.60
2023-03-21T13:12:33.621Z,6.50
2023-03-21T13:15:24.356Z,6.10
2023-03-21T13:18:04.460Z,7.13
2023-03-21T13:20:41.932Z,6.20
2023-03-21T13:23:09.106Z,6.22
2023-03-21T13:25:44.657Z,6.65
2023-03-21T13:28:20.944Z,6.55
2023-03-21T13:30:50.409Z,6.10
2023-03-21T13:33:23.186Z,6.30
2023-03-21T13:36:00.956Z,5.70
2023-03-21T13:38:29.764Z,4.80
2023-03-21T13:41:00.293Z,5.80
2023-03-21T13:43:39.267Z,5.07
2023-03-21T13:46:10.727Z,6.00
2023-03-21T13:49:00.163Z,4.97
2023-03-21T13:51:46.684Z,5.10
2023-03-21T13:54:26.079Z,4.88
2023-03-21T13:57:01.017Z,5.32
2023-03-21T13:59:42.414Z,4.88
2023-03-21T14:02:29.739Z,5.47
2023-03-21T14:05:06.832Z,5.20
2023-03-21T14:07:41.035Z,5.57
2023-03-21T14:10:19.476Z,4.78
2023-03-21T14:12:48.474Z,4.78
2023-03-21T14:15:22.013Z,5.05
2023-03-21T14:17:57.594Z,4.80
2023-03-21T14:20:28.149Z,5.10
2023-03-21T14:22:55.701Z,4.38
2023-03-21T14:25:37.267Z,4.80
2023-03-21T14:28:18.301Z,4.32
2023-03-21T14:30:51.026Z,4.30
2023-03-21T14:33:26.906Z,4.40
2023-03-21T14:35:59.611Z,4.07
2023-03-21T14:38:33.409Z,3.95
2023-03-21T14:41:00.422Z,4.40
2023-03-21T14:43:28.739Z,5.13
2023-03-21T14:45:57.356Z,4.68
2023-03-21T14:48:32.842Z,4.70
2023-03-21T14:51:04.837Z,4.18
2023-03-21T14:53:37.862Z,3.85
2023-03-21T14:56:16.829Z,4.13
2023-03-21T14:58:47.089Z,4.32
2023-03-21T15:01:17.760Z,4.30
2023-03-21T15:03:46.984Z,4.30
2023-03-21T15:06:14.500Z,4.68
2023-03-21T15:08:55.613Z,3.85
2023-03-21T15:11:31.454Z,4.57
2023-03-21T15:14:02.154Z,4.80
2023-03-21T15:16:31.397Z,4.97
2023-03-21T15:19:01.572Z,4.60
2023-03-21T15:21:32.515Z,4.47
2023-03-21T15:24:05.684Z,4.88
2023-03-21T15:26:32.906Z,4.35
2023-03-21T15:29:00.510Z,5.22
2023-03-21T15:31:34.036Z,5.10
2023-03-21T15:34:05.101Z,4.65
2023-03-21T15:36:35.577Z,4.40
2023-03-21T15:39:08.498Z,4.47
2023-03-21T15:41:35.710Z,4.70
2023-03-21T15:44:13.882Z,4.32
2023-03-21T15:46:44.429Z,4.82
2023-03-21T15:49:20.843Z,4.50
2023-03-21T15:51:52.413Z,4.65
2023-03-21T15:54:24.733Z,5.68
2023-03-21T15:56:55.371Z,5.20
2023-03-21T15:59:27.742Z,4.35
2023-03-21T16:02:01.839Z,5.07
2023-03-21T16:04:31.153Z,4.57
2023-03-21T16:07:01.664Z,5.13
2023-03-21T16:09:42.143Z,4.65
2023-03-21T16:12:12.208Z,5.25
2023-03-21T16:14:39.817Z,4.70
2023-03-21T16:17:30.664Z,5.82
2023-03-21T16:19:59.125Z,5.65
2023-03-21T16:22:26.361Z,5.63
2023-03-21T16:24:53.225Z,5.32
2023-03-21T16:27:21.132Z,5.35
2023-03-21T16:29:48.039Z,5.40
2023-03-21T16:32:17.445Z,5.15
2023-03-21T16:34:44.547Z,5.65
2023-03-21T16:37:13.964Z,5.70
2023-03-21T16:39:41.020Z,5.50
2023-03-21T16:45:01.483Z,5.13
2023-03-21T16:47:28.396Z,5.50
2023-03-21T16:49:55.389Z,5.57
2023-03-21T16:52:26.270Z,5.30
2023-03-21T16:54:53.415Z,5.33
2023-03-21T16:57:26.074Z,5.85
2023-03-21T16:59:54.479Z,5.13
2023-03-21T17:02:24.813Z,5.55
2023-03-21T17:04:52.092Z,5.35
2023-03-21T17:07:19.287Z,4.75
2023-03-21T17:09:47.499Z,5.57
2023-03-21T17:12:16.205Z,5.63
2023-03-21T17:14:44.825Z,4.82
2023-03-21T17:17:14.130Z,5.18
2023-03-21T17:19:41.171Z,5.32
2023-03-21T17:22:09.276Z,4.80
2023-03-21T17:24:37.392Z,5.35
2023-03-21T17:27:10.842Z,5.07
2023-03-21T17:29:39.067Z,4.88
2023-03-21T17:32:06.214Z,3.80
2023-03-21T17:34:33.382Z,4.38
2023-03-21T17:37:00.680Z,4.50
2023-03-21T17:39:27.905Z,5.43
2023-03-21T17:41:55.789Z,4.68
2023-03-21T17:44:24.088Z,4.63
2023-03-21T17:46:52.462Z,4.68
2023-03-21T17:49:19.697Z,4.43
2023-03-21T17:51:46.710Z,4.85
2023-03-21T17:54:13.593Z,4.90
2023-03-21T17:56:40.926Z,4.50
2023-03-21T17:59:13.014Z,5.38
2023-03-21T18:04:08.897Z,4.72
2023-03-21T18:06:36.114Z,4.90
2023-03-21T18:09:04.935Z,5.20
2023-03-21T18:11:31.845Z,5.32
2023-03-21T18:14:13.690Z,5.30
2023-03-21T18:16:43.690Z,5.65
2023-03-21T18:19:11.462Z,5.18
2023-03-21T18:21:38.450Z,5.75
2023-03-21T18:24:06.432Z,5.20
2023-03-21T18:26:33.370Z,6.15
2023-03-21T18:32:04.529Z,6.00
2023-03-21T18:34:33.395Z,5.65
2023-03-21T18:37:03.784Z,6.90
2023-03-21T18:39:32.021Z,9.68
2023-03-21T18:41:59.364Z,7.88
2023-03-21T18:44:26.315Z,8.70
2023-03-21T18:46:55.129Z,12.23
2023-03-21T18:52:10.181Z,13.35
2023-03-21T18:54:38.181Z,9.95
2023-03-21T18:57:34.565Z,9.95
2023-03-21T18:59:53.585Z,8.35
2023-03-21T19:02:22.144Z,8.38
2023-03-21T19:04:49.235Z,8.48
2023-03-21T19:07:16.099Z,8.95
2023-03-21T19:10:01.911Z,9.73
2023-03-21T19:12:30.753Z,8.52
2023-03-21T19:14:57.740Z,8.32
2023-03-21T19:20:13.394Z,8.90
2023-03-21T19:22:40.540Z,7.95
2023-03-21T19:25:09.473Z,8.13
2023-03-21T19:27:37.635Z,7.88
2023-03-21T19:30:14.406Z,8.55
2023-03-21T19:32:44.577Z,8.95
2023-03-21T19:35:12.051Z,8.50
2023-03-21T19:37:38.963Z,8.50
2023-03-21T19:40:08.059Z,9.30
2023-03-21T19:42:35.166Z,8.63
2023-03-21T19:45:02.698Z,8.52
2023-03-21T19:47:29.664Z,9.07
2023-03-21T19:52:45.193Z,9.70
2023-03-21T19:55:12.435Z,8.77
2023-03-21T19:57:39.639Z,9.60
2023-03-21T20:00:08.867Z,9.10
2023-03-21T20:02:37.115Z,9.13
2023-03-21T20:05:08.253Z,8.48
2023-03-21T20:07:35.459Z,9.20
2023-03-21T20:10:02.427Z,8.40
2023-03-21T20:12:29.451Z,9.07
2023-03-21T20:15:12.205Z,8.52
2023-03-21T20:17:43.910Z,8.90
2023-03-21T20:20:13.162Z,9.00
2023-03-21T20:25:27.252Z,8.70
2023-03-21T20:28:12.885Z,9.88
2023-03-21T20:30:46.131Z,9.05
2023-03-21T20:33:13.110Z,7.45
2023-03-21T20:38:29.893Z,8.48
2023-03-21T20:40:57.087Z,8.88
2023-03-21T20:44:13.985Z,7.72
2023-03-21T20:46:12.926Z,8.80
2023-03-21T20:48:42.315Z,9.07
2023-03-21T20:52:14.754Z,8.68
2023-03-21T20:53:59.065Z,9.15
2023-03-21T20:56:25.937Z,8.40
2023-03-21T20:59:04.842Z,8.82
2023-03-21T21:01:39.460Z,9.40
2023-03-21T21:04:06.882Z,9.23
2023-03-21T21:06:35.383Z,8.35
2023-03-21T21:09:02.208Z,8.02
2023-03-21T21:14:16.442Z,7.80
2023-03-21T21:16:43.515Z,8.35
2023-03-21T21:19:11.448Z,8.55
2023-03-21T21:21:40.976Z,8.27
2023-03-21T21:24:09.047Z,7.20
2023-03-21T21:26:36.136Z,8.90
2023-03-21T21:29:03.312Z,8.43
2023-03-21T21:31:30.245Z,7.25
2023-03-21T21:33:57.148Z,8.32
2023-03-21T21:36:24.092Z,8.18
2023-03-21T21:38:52.284Z,8.52
2023-03-21T21:41:22.100Z,8.13
2023-03-21T21:43:48.949Z,7.35
2023-03-21T21:46:16.509Z,8.80
2023-03-21T21:48:44.028Z,7.50
2023-03-21T21:51:11.338Z,7.88
2023-03-21T21:53:42.151Z,7.40
2023-03-21T21:56:10.974Z,8.27
2023-03-21T21:58:38.164Z,8.05
2023-03-21T22:01:06.491Z,8.10
2023-03-21T22:03:33.639Z,7.32
2023-03-21T22:06:02.910Z,7.20
2023-03-21T22:08:29.813Z,6.75
2023-03-21T22:10:56.866Z,7.20
2023-03-21T22:13:25.222Z,7.50
2023-03-21T22:16:17.185Z,7.47
2023-03-21T22:18:46.366Z,7.85
2023-03-21T22:21:13.614Z,6.65
2023-03-21T22:23:41.697Z,7.38
2023-03-21T22:26:09.778Z,6.30
2023-03-21T22:28:39.171Z,6.15
2023-03-21T22:31:14.037Z,7.07
2023-03-21T22:33:41.625Z,6.43
2023-03-21T22:36:10.128Z,7.18
2023-03-21T22:38:37.228Z,7.40
2023-03-21T22:41:06.310Z,6.80
2023-03-21T22:43:34.240Z,6.53
2023-03-21T22:46:04.605Z,6.70
2023-03-21T22:48:32.964Z,6.38
2023-03-21T22:51:00.585Z,6.75
2023-03-21T22:53:28.224Z,7.13
2023-03-21T22:55:56.578Z,7.75
2023-03-21T22:58:24.050Z,5.65
2023-03-21T23:00:51.112Z,6.53
2023-03-21T23:03:19.558Z,6.40
2023-03-21T23:05:46.506Z,6.53
2023-03-21T23:08:13.957Z,5.90
2023-03-21T23:10:42.053Z,6.20
2023-03-21T23:13:09.325Z,6.05
2023-03-21T23:15:36.308Z,6.30
2023-03-21T23:18:05.056Z,6.85
2023-03-21T23:20:33.591Z,6.35
2023-03-21T23:23:00.575Z,6.45
2023-03-21T23:25:27.596Z,6.47
2023-03-21T23:27:55.234Z,5.80
2023-03-21T23:30:22.289Z,6.93
2023-03-21T23:32:49.336Z,6.60
2023-03-21T23:35:16.959Z,6.25
2023-03-21T23:37:47.762Z,6.00
2023-03-21T23:40:14.690Z,5.70
2023-03-21T23:42:41.588Z,5.88
2023-03-21T23:45:09.620Z,5.68
2023-03-21T23:47:36.836Z,6.60
2023-03-21T23:50:04.704Z,5.85
2023-03-21T23:52:31.829Z,5.78
2023-03-21T23:55:00.652Z,5.90
2023-03-21T23:57:27.473Z,5.43
2023-03-21T23:59:55.041Z,5.80
